createdAt,value
2023-02-03T00:02:22.998Z,99.90
2023-02-03T00:04:49.721Z,99.90
2023-02-03T00:07:16.501Z,99.90
2023-02-03T00:09:43.262Z,99.90
2023-02-03T00:12:10.091Z,99.90
2023-02-03T00:14:37.985Z,99.90
2023-02-03T00:17:05.359Z,99.90
2023-02-03T00:19:32.357Z,99.90
2023-02-03T00:21:59.078Z,99.90
2023-02-03T00:24:25.763Z,99.90
2023-02-03T00:26:52.416Z,99.90
2023-02-03T00:29:21.486Z,99.90
2023-02-03T00:31:48.333Z,99.90
2023-02-03T00:34:15.026Z,99.90
2023-02-03T00:36:43.037Z,99.90
2023-02-03T00:39:09.905Z,99.90
2023-02-03T00:41:36.528Z,99.90
2023-02-03T00:44:03.284Z,99.90
2023-02-03T00:46:29.912Z,99.90
2023-02-03T00:48:56.541Z,99.90
2023-02-03T00:51:23.259Z,99.90
2023-02-03T00:53:49.917Z,99.90
2023-02-03T00:56:16.590Z,99.90
2023-02-03T00:58:43.303Z,99.90
2023-02-03T01:01:10.410Z,99.90
2023-02-03T01:03:37.867Z,99.90
2023-02-03T01:06:17.052Z,99.90
2023-02-03T01:08:44.409Z,99.90
2023-02-03T01:11:13.885Z,99.90
2023-02-03T01:13:41.182Z,99.90
2023-02-03T01:16:12.287Z,99.90
2023-02-03T01:18:39.365Z,99.90
2023-02-03T01:21:12.126Z,99.90
2023-02-03T01:23:39.084Z,99.90
2023-02-03T01:26:07.895Z,99.90
2023-02-03T01:28:34.958Z,99.90
2023-02-03T01:31:16.932Z,99.90
2023-02-03T01:33:46.249Z,99.90
2023-02-03T01:36:14.018Z,99.90
2023-02-03T01:38:41.019Z,99.90
2023-02-03T01:41:10.980Z,99.90
2023-02-03T01:43:40.235Z,99.90
2023-02-03T01:46:33.594Z,99.90
2023-02-03T01:49:20.095Z,99.90
2023-02-03T01:51:47.122Z,99.90
2023-02-03T01:54:22.754Z,99.90
2023-02-03T01:56:56.952Z,99.90
2023-02-03T01:59:25.020Z,99.90
2023-02-03T02:01:53.303Z,99.90
2023-02-03T02:04:22.162Z,99.90
2023-02-03T02:06:48.905Z,99.90
2023-02-03T02:09:16.329Z,99.90
2023-02-03T02:11:43.049Z,99.90
2023-02-03T02:14:10.322Z,99.90
2023-02-03T02:16:53.194Z,99.90
2023-02-03T02:20:04.353Z,99.90
2023-02-03T02:22:53.004Z,99.90
2023-02-03T02:25:41.403Z,99.90
2023-02-03T02:28:37.136Z,99.90
2023-02-03T02:31:03.843Z,99.90
2023-02-03T02:33:42.665Z,99.90
2023-02-03T02:36:50.107Z,99.90
2023-02-03T02:39:31.185Z,99.90
2023-02-03T02:42:31.804Z,99.90
2023-02-03T02:45:08.115Z,99.90
2023-02-03T02:47:34.954Z,99.90
2023-02-03T02:50:18.571Z,99.90
2023-02-03T02:52:47.482Z,99.90
2023-02-03T02:55:24.686Z,99.90
2023-02-03T02:57:55.607Z,99.90
2023-02-03T03:00:23.697Z,99.90
2023-02-03T03:02:50.439Z,99.90
2023-02-03T03:05:18.719Z,99.90
2023-02-03T03:07:51.035Z,99.90
2023-02-03T03:10:24.166Z,99.90
2023-02-03T03:12:56.775Z,99.90
2023-02-03T03:15:26.789Z,99.90
2023-02-03T03:17:57.878Z,99.90
2023-02-03T03:20:27.239Z,99.90
2023-02-03T03:23:05.978Z,99.90
2023-02-03T03:25:40.888Z,99.90
2023-02-03T03:28:15.857Z,99.90
2023-02-03T03:30:43.477Z,99.90
2023-02-03T03:33:10.563Z,99.70
2023-02-03T03:36:03.262Z,99.10
2023-02-03T03:38:41.587Z,97.90
2023-02-03T03:41:22.635Z,95.60
2023-02-03T03:43:51.071Z,94.30
2023-02-03T03:46:25.647Z,94.60
2023-02-03T03:48:59.946Z,94.10
2023-02-03T03:51:34.932Z,94.20
2023-02-03T03:54:09.620Z,93.70
2023-02-03T03:56:45.318Z,93.80
2023-02-03T03:59:14.040Z,93.90
2023-02-03T04:01:41.977Z,93.60
2023-02-03T04:04:11.210Z,93.30
2023-02-03T04:06:39.735Z,92.00
2023-02-03T04:09:06.778Z,91.90
2023-02-03T04:11:51.953Z,91.90
2023-02-03T04:14:18.563Z,92.10
2023-02-03T04:16:45.305Z,92.10
2023-02-03T04:19:12.020Z,90.80
2023-02-03T04:21:38.791Z,89.60
2023-02-03T04:24:05.890Z,89.30
2023-02-03T04:26:32.570Z,89.40
2023-02-03T04:28:59.249Z,89.90
2023-02-03T04:31:26.021Z,88.60
2023-02-03T04:33:52.689Z,88.90
2023-02-03T04:36:19.357Z,89.20
2023-02-03T04:38:46.063Z,89.60
2023-02-03T04:41:12.736Z,88.90
2023-02-03T04:43:39.459Z,87.00
2023-02-03T04:46:06.239Z,86.50
2023-02-03T04:48:32.941Z,86.10
2023-02-03T04:51:03.797Z,85.90
2023-02-03T04:53:31.114Z,85.80
2023-02-03T04:55:57.842Z,85.60
2023-02-03T04:58:24.665Z,85.10
2023-02-03T05:00:51.385Z,85.60
2023-02-03T05:03:18.023Z,84.90
2023-02-03T05:05:45.048Z,85.50
2023-02-03T05:08:11.789Z,85.90
2023-02-03T05:10:38.638Z,86.10
2023-02-03T05:13:05.302Z,86.50
2023-02-03T05:15:32.023Z,87.00
2023-02-03T05:17:58.716Z,87.00
2023-02-03T05:20:25.771Z,86.60
2023-02-03T05:22:52.698Z,85.30
2023-02-03T05:25:19.383Z,84.20
2023-02-03T05:27:46.054Z,83.40
2023-02-03T05:30:12.966Z,83.00
2023-02-03T05:32:39.674Z,81.50
2023-02-03T05:35:06.780Z,82.80
2023-02-03T05:37:33.453Z,84.00
2023-02-03T05:40:20.133Z,84.10
2023-02-03T05:42:50.352Z,81.50
2023-02-03T05:45:17.452Z,81.40
2023-02-03T05:47:44.152Z,81.50
2023-02-03T05:50:11.171Z,81.40
2023-02-03T05:52:37.946Z,80.60
2023-02-03T05:55:04.990Z,81.10
2023-02-03T05:57:32.431Z,80.00
2023-02-03T06:00:02.353Z,80.00
2023-02-03T06:02:29.155Z,80.80
2023-02-03T06:04:56.049Z,81.00
2023-02-03T06:07:22.806Z,80.10
2023-02-03T06:09:50.051Z,80.30
2023-02-03T06:12:16.941Z,80.70
2023-02-03T06:14:43.682Z,80.40
2023-02-03T06:17:10.483Z,80.60
2023-02-03T06:19:37.292Z,80.30
2023-02-03T06:22:04.020Z,81.30
2023-02-03T06:24:30.688Z,80.40
2023-02-03T06:26:57.430Z,80.50
2023-02-03T06:29:24.150Z,80.10
2023-02-03T06:31:51.076Z,79.70
2023-02-03T06:34:17.895Z,80.80
2023-02-03T06:36:44.636Z,80.30
2023-02-03T06:39:11.299Z,80.00
2023-02-03T06:41:37.932Z,80.30
2023-02-03T06:44:04.622Z,79.80
2023-02-03T06:46:31.478Z,79.80
2023-02-03T06:48:58.288Z,80.30
2023-02-03T06:51:25.076Z,80.20
2023-02-03T06:53:52.138Z,80.20
2023-02-03T06:56:18.974Z,79.10
2023-02-03T06:58:45.775Z,79.90
2023-02-03T07:01:12.573Z,80.30
2023-02-03T07:03:42.304Z,80.60
2023-02-03T07:06:08.976Z,79.90
2023-02-03T07:08:35.763Z,80.10
2023-02-03T07:11:02.407Z,80.60
2023-02-03T07:13:29.216Z,79.90
2023-02-03T07:15:55.909Z,80.00
2023-02-03T07:21:14.225Z,81.00
2023-02-03T07:23:41.028Z,80.20
2023-02-03T07:26:08.446Z,80.90
2023-02-03T07:28:35.884Z,82.30
2023-02-03T07:31:04.874Z,83.20
2023-02-03T07:33:33.312Z,84.40
2023-02-03T07:36:00.527Z,85.60
2023-02-03T07:38:28.512Z,86.30
2023-02-03T07:40:55.692Z,87.20
2023-02-03T07:43:22.731Z,88.10
2023-02-03T07:45:49.471Z,88.40
2023-02-03T07:48:16.326Z,88.40
2023-02-03T07:50:43.078Z,88.20
2023-02-03T07:53:09.921Z,88.60
2023-02-03T07:55:39.333Z,88.40
2023-02-03T07:58:06.907Z,88.10
2023-02-03T08:00:37.121Z,88.20
2023-02-03T08:03:04.427Z,87.00
2023-02-03T08:05:31.467Z,87.20
2023-02-03T08:07:59.410Z,87.80
2023-02-03T08:10:26.781Z,88.50
2023-02-03T08:12:54.610Z,89.10
2023-02-03T08:15:21.951Z,89.80
2023-02-03T08:17:52.024Z,89.80
2023-02-03T08:20:19.070Z,90.40
2023-02-03T08:22:45.982Z,90.60
2023-02-03T08:25:13.422Z,90.20
2023-02-03T08:27:40.736Z,89.40
2023-02-03T08:30:09.975Z,89.90
2023-02-03T08:32:36.910Z,89.60
2023-02-03T08:35:04.267Z,88.90
2023-02-03T08:37:32.506Z,89.00
2023-02-03T08:39:59.898Z,89.30
2023-02-03T08:42:26.721Z,89.60
2023-02-03T08:44:53.471Z,89.10
2023-02-03T08:47:20.212Z,88.80
2023-02-03T08:49:47.185Z,89.10
2023-02-03T08:52:14.461Z,89.00
2023-02-03T08:54:41.653Z,89.50
2023-02-03T08:57:08.497Z,89.80
2023-02-03T08:59:37.617Z,89.70
2023-02-03T09:02:05.253Z,89.30
2023-02-03T09:04:33.396Z,89.20
2023-02-03T09:07:02.589Z,89.10
2023-02-03T09:09:29.478Z,89.80
2023-02-03T09:12:01.930Z,90.20
2023-02-03T09:14:30.218Z,89.90
2023-02-03T09:16:57.025Z,89.70
2023-02-03T09:19:23.795Z,89.90
2023-02-03T09:21:50.781Z,90.30
2023-02-03T09:24:18.115Z,89.30
2023-02-03T09:26:44.972Z,90.10
2023-02-03T09:29:11.818Z,89.80
2023-02-03T09:31:38.506Z,90.00
2023-02-03T09:34:05.213Z,90.10
2023-02-03T09:36:31.962Z,89.40
2023-02-03T09:38:58.743Z,89.30
2023-02-03T09:41:44.233Z,89.40
2023-02-03T09:44:38.638Z,89.30
2023-02-03T09:47:28.960Z,89.00
2023-02-03T09:49:58.784Z,89.40
2023-02-03T09:52:30.758Z,88.80
2023-02-03T09:55:21.724Z,89.20
2023-02-03T09:57:56.926Z,88.30
2023-02-03T10:00:29.284Z,88.10
2023-02-03T10:02:58.572Z,88.10
2023-02-03T10:06:10.040Z,88.10
2023-02-03T10:08:43.383Z,87.80
2023-02-03T10:11:29.758Z,88.20
2023-02-03T10:14:24.236Z,88.60
2023-02-03T10:16:59.780Z,88.60
2023-02-03T10:19:52.573Z,88.60
2023-02-03T10:22:22.947Z,89.10
2023-02-03T10:24:55.957Z,89.50
2023-02-03T10:27:24.959Z,90.10
2023-02-03T10:30:22.671Z,89.30
2023-02-03T10:33:13.952Z,88.60
2023-02-03T10:35:59.123Z,88.80
2023-02-03T10:38:38.453Z,88.40
2023-02-03T10:41:05.316Z,88.40
2023-02-03T10:43:48.218Z,89.10
2023-02-03T10:46:16.143Z,90.00
2023-02-03T10:48:47.825Z,88.90
2023-02-03T10:51:28.013Z,89.40
2023-02-03T10:53:54.791Z,89.10
2023-02-03T10:56:38.626Z,87.90
2023-02-03T10:59:10.035Z,87.70
2023-02-03T11:01:41.099Z,86.70
2023-02-03T11:04:26.800Z,86.30
2023-02-03T11:07:08.284Z,85.50
2023-02-03T11:09:43.061Z,86.20
2023-02-03T11:12:17.008Z,86.10
2023-02-03T11:14:49.087Z,86.20
2023-02-03T11:17:24.858Z,87.00
2023-02-03T11:20:00.272Z,86.30
2023-02-03T11:22:41.337Z,86.40
2023-02-03T11:25:34.912Z,86.30
2023-02-03T11:28:08.132Z,85.50
2023-02-03T11:30:36.634Z,85.70
2023-02-03T11:33:15.995Z,86.00
2023-02-03T11:35:55.845Z,85.90
2023-02-03T11:38:39.463Z,85.90
2023-02-03T11:44:15.415Z,86.00
2023-02-03T11:46:47.128Z,85.70
2023-02-03T11:49:52.130Z,85.10
2023-02-03T11:52:56.044Z,85.20
2023-02-03T11:55:35.195Z,85.10
2023-02-03T11:58:29.188Z,85.50
2023-02-03T12:00:58.921Z,85.60
2023-02-03T12:03:54.532Z,85.30
2023-02-03T12:06:33.796Z,86.50
2023-02-03T12:09:26.631Z,88.60
2023-02-03T12:12:23.152Z,89.10
2023-02-03T12:14:55.919Z,90.00
2023-02-03T12:17:34.502Z,91.20
2023-02-03T12:20:32.722Z,92.10
2023-02-03T12:23:27.747Z,92.80
2023-02-03T12:26:16.339Z,93.20
2023-02-03T12:28:55.027Z,92.80
2023-02-03T12:31:33.229Z,92.30
2023-02-03T12:34:28.531Z,92.80
2023-02-03T12:37:26.972Z,92.00
2023-02-03T12:39:58.313Z,90.80
2023-02-03T12:42:32.242Z,91.40
2023-02-03T12:45:13.669Z,90.90
2023-02-03T12:47:55.253Z,91.60
2023-02-03T12:50:26.191Z,91.90
2023-02-03T12:53:07.884Z,92.70
2023-02-03T12:56:04.187Z,93.70
2023-02-03T12:58:38.049Z,94.30
2023-02-03T13:01:14.217Z,93.90
2023-02-03T13:04:11.546Z,93.10
2023-02-03T13:07:03.831Z,93.80
2023-02-03T13:09:44.372Z,93.60
2023-02-03T13:12:17.574Z,93.70
2023-02-03T13:14:53.153Z,93.50
2023-02-03T13:17:25.487Z,93.60
2023-02-03T13:19:57.656Z,93.70
2023-02-03T13:22:25.183Z,94.00
2023-02-03T13:25:06.124Z,94.50
2023-02-03T13:28:10.674Z,95.50
2023-02-03T13:31:04.020Z,96.10
2023-02-03T13:33:36.462Z,96.70
2023-02-03T13:36:06.493Z,97.80
2023-02-03T13:38:48.057Z,96.00
2023-02-03T13:41:45.999Z,94.80
2023-02-03T13:44:16.946Z,93.30
2023-02-03T13:46:49.713Z,92.10
2023-02-03T13:49:30.837Z,90.10
2023-02-03T13:51:58.178Z,89.40
2023-02-03T13:54:30.281Z,88.40
2023-02-03T13:57:02.891Z,86.20
2023-02-03T13:59:41.539Z,84.30
2023-02-03T14:02:20.125Z,83.90
2023-02-03T14:04:46.861Z,83.80
2023-02-03T14:07:33.651Z,83.60
2023-02-03T14:10:13.005Z,82.40
2023-02-03T14:12:57.489Z,81.10
2023-02-03T14:15:33.196Z,81.70
2023-02-03T14:18:25.770Z,80.80
2023-02-03T14:20:58.545Z,80.70
2023-02-03T14:23:38.754Z,80.20
2023-02-03T14:26:05.914Z,80.10
2023-02-03T14:28:45.226Z,81.30
2023-02-03T14:31:21.817Z,81.30
2023-02-03T14:33:57.913Z,81.60
2023-02-03T14:36:42.977Z,82.20
2023-02-03T14:39:56.412Z,82.10
2023-02-03T14:42:35.935Z,81.80
2023-02-03T14:48:34.219Z,81.80
2023-02-03T14:51:10.592Z,79.50
2023-02-03T14:54:27.870Z,79.70
2023-02-03T14:57:15.824Z,78.50
2023-02-03T15:00:07.958Z,76.80
2023-02-03T15:03:32.524Z,75.70
2023-02-03T15:06:05.883Z,75.80
2023-02-03T15:08:55.457Z,74.60
2023-02-03T15:11:28.417Z,73.50
2023-02-03T15:14:04.552Z,74.10
2023-02-03T15:16:32.477Z,73.90
2023-02-03T15:19:08.998Z,73.10
2023-02-03T15:22:01.896Z,72.70
2023-02-03T15:24:37.103Z,71.80
2023-02-03T15:27:05.098Z,70.90
2023-02-03T15:35:38.271Z,72.30
2023-02-03T15:38:25.723Z,68.80
2023-02-03T15:41:13.177Z,68.40
2023-02-03T15:43:43.662Z,68.10
2023-02-03T15:46:22.209Z,66.70
2023-02-03T15:49:23.955Z,65.40
2023-02-03T15:52:15.779Z,66.70
2023-02-03T15:54:53.707Z,68.40
2023-02-03T15:58:30.471Z,67.70
2023-02-03T16:01:12.305Z,67.20
2023-02-03T16:03:40.705Z,67.00
2023-02-03T16:06:49.449Z,66.70
2023-02-03T16:09:43.634Z,67.20
2023-02-03T16:15:26.218Z,66.00
2023-02-03T16:17:58.116Z,67.00
2023-02-03T16:20:52.105Z,67.30
2023-02-03T16:23:29.884Z,68.60
2023-02-03T16:26:05.047Z,68.70
2023-02-03T16:29:02.570Z,68.70
2023-02-03T16:31:49.434Z,67.70
2023-02-03T16:34:42.352Z,67.70
2023-02-03T16:40:51.813Z,69.20
2023-02-03T16:51:48.759Z,70.40
2023-02-03T16:54:41.688Z,71.00
2023-02-03T17:00:13.769Z,70.10
2023-02-03T17:02:40.694Z,68.50
2023-02-03T17:07:54.567Z,67.90
2023-02-03T17:10:33.242Z,68.20
2023-02-03T17:15:53.400Z,68.40
2023-02-03T17:18:20.632Z,68.50
2023-02-03T17:20:47.923Z,68.90
2023-02-03T17:23:19.026Z,70.10
2023-02-03T17:25:47.729Z,70.60
2023-02-03T17:28:15.074Z,71.00
2023-02-03T17:30:42.028Z,71.50
2023-02-03T17:33:12.397Z,71.80
2023-02-03T17:35:44.442Z,71.30
2023-02-03T17:38:12.503Z,71.40
2023-02-03T17:54:28.004Z,68.90
2023-02-03T17:56:54.743Z,68.70
2023-02-03T17:59:21.486Z,68.30
2023-02-03T18:01:48.318Z,68.90
2023-02-03T18:04:15.094Z,68.50
2023-02-03T18:06:41.900Z,68.60
2023-02-03T18:09:10.224Z,68.60
2023-02-03T18:11:38.281Z,69.00
2023-02-03T18:14:05.814Z,68.40
2023-02-03T18:16:35.550Z,68.60
2023-02-03T18:19:05.822Z,68.70
2023-02-03T18:21:32.693Z,68.70
2023-02-03T18:24:01.823Z,68.70
2023-02-03T18:26:34.406Z,69.10
2023-02-03T18:29:01.247Z,69.40
2023-02-03T18:31:28.234Z,69.20
2023-02-03T18:33:54.961Z,69.90
2023-02-03T18:36:21.981Z,70.10
2023-02-03T18:38:49.147Z,70.20
2023-02-03T18:41:23.667Z,70.10
2023-02-03T18:43:51.217Z,69.50
2023-02-03T18:46:36.089Z,69.60
2023-02-03T18:49:02.941Z,68.90
2023-02-03T18:51:29.607Z,69.90
2023-02-03T18:53:58.609Z,69.30
2023-02-03T18:56:28.213Z,69.60
2023-02-03T18:58:55.105Z,69.50
2023-02-03T19:01:27.333Z,69.50
2023-02-03T19:03:55.044Z,70.00
2023-02-03T19:06:22.647Z,70.20
2023-02-03T19:08:49.686Z,67.60
2023-02-03T19:11:16.730Z,67.50
2023-02-03T19:13:43.625Z,68.60
2023-02-03T19:16:14.220Z,65.80
2023-02-03T19:18:41.354Z,67.00
2023-02-03T19:21:08.236Z,66.20
2023-02-03T19:23:34.995Z,66.20
2023-02-03T19:26:02.785Z,67.10
2023-02-03T19:28:31.377Z,67.80
2023-02-03T19:31:15.112Z,68.00
2023-02-03T19:33:42.356Z,68.60
2023-02-03T19:36:10.213Z,68.80
2023-02-03T19:38:37.350Z,68.20
2023-02-03T19:41:04.306Z,68.00
2023-02-03T19:43:31.666Z,68.70
2023-02-03T19:45:58.868Z,68.80
2023-02-03T19:48:26.099Z,69.00
2023-02-03T19:50:52.838Z,68.30
2023-02-03T19:53:19.638Z,68.60
2023-02-03T19:55:47.301Z,69.10
2023-02-03T19:58:14.557Z,69.10
2023-02-03T20:00:42.850Z,68.20
2023-02-03T20:03:10.077Z,67.40
2023-02-03T20:05:37.419Z,67.70
2023-02-03T20:08:06.099Z,67.30
2023-02-03T20:10:33.443Z,67.80
2023-02-03T20:13:00.929Z,68.10
2023-02-03T20:15:27.656Z,68.60
2023-02-03T20:17:54.461Z,68.00
2023-02-03T20:20:21.439Z,68.10
2023-02-03T20:22:49.117Z,67.50
2023-02-03T20:25:16.317Z,67.50
2023-02-03T20:27:43.185Z,68.00
2023-02-03T20:30:11.299Z,67.80
2023-02-03T20:32:39.239Z,68.10
2023-02-03T20:35:06.828Z,68.40
2023-02-03T20:37:36.540Z,69.40
2023-02-03T20:40:16.109Z,69.70
2023-02-03T20:42:43.210Z,68.60
2023-02-03T20:45:16.977Z,67.20
2023-02-03T20:47:44.867Z,67.30
2023-02-03T20:50:23.612Z,67.00
2023-02-03T20:52:53.344Z,67.10
2023-02-03T20:55:22.991Z,67.40
2023-02-03T20:57:51.656Z,67.70
2023-02-03T21:00:25.333Z,67.40
2023-02-03T21:03:12.345Z,67.60
2023-02-03T21:05:42.221Z,67.90
2023-02-03T21:08:20.104Z,68.90
2023-02-03T21:10:48.496Z,70.00
2023-02-03T21:13:28.284Z,70.80
2023-02-03T21:16:00.219Z,71.90
2023-02-03T21:18:36.376Z,72.10
2023-02-03T21:21:04.895Z,72.50
2023-02-03T21:23:47.293Z,71.60
2023-02-03T21:26:26.189Z,71.20
2023-02-03T21:28:55.191Z,71.70
2023-02-03T21:31:31.079Z,72.00
2023-02-03T21:34:00.159Z,72.20
2023-02-03T21:36:34.464Z,72.60
2023-02-03T21:39:02.025Z,72.70
2023-02-03T21:41:37.933Z,72.50
2023-02-03T21:44:27.955Z,72.20
2023-02-03T21:46:55.153Z,71.70
2023-02-03T21:49:22.495Z,71.20
2023-02-03T21:51:49.547Z,71.10
2023-02-03T21:54:28.061Z,70.50
2023-02-03T21:56:55.730Z,70.30
2023-02-03T21:59:28.452Z,70.50
2023-02-03T22:01:57.722Z,70.80
2023-02-03T22:04:27.409Z,70.70
2023-02-03T22:06:55.330Z,71.90
2023-02-03T22:09:25.025Z,71.80
2023-02-03T22:11:52.614Z,71.90
2023-02-03T22:14:21.042Z,72.20
2023-02-03T22:16:48.236Z,72.50
2023-02-03T22:19:17.439Z,72.80
2023-02-03T22:21:44.809Z,72.70
2023-02-03T22:24:11.702Z,72.60
2023-02-03T22:26:38.595Z,72.30
2023-02-03T22:29:05.645Z,71.90
2023-02-03T22:31:32.690Z,72.00
2023-02-03T22:33:59.504Z,71.90
2023-02-03T22:36:26.390Z,71.80
2023-02-03T22:38:53.136Z,71.60
2023-02-03T22:41:20.978Z,71.30
2023-02-03T22:43:47.991Z,71.30
2023-02-03T22:46:14.790Z,70.80
2023-02-03T22:48:41.752Z,70.50
2023-02-03T22:51:08.637Z,70.00
2023-02-03T22:53:35.688Z,70.10
2023-02-03T22:56:02.441Z,70.10
2023-02-03T22:58:29.190Z,69.70
2023-02-03T23:00:56.005Z,70.00
2023-02-03T23:03:22.800Z,70.10
2023-02-03T23:05:49.592Z,70.70
2023-02-03T23:08:16.293Z,71.10
2023-02-03T23:10:42.916Z,71.20
2023-02-03T23:13:09.618Z,71.90
2023-02-03T23:15:36.360Z,72.60
2023-02-03T23:18:03.166Z,73.00
2023-02-03T23:20:30.257Z,73.80
2023-02-03T23:22:57.123Z,74.40
2023-02-03T23:25:23.860Z,74.90
2023-02-03T23:27:50.774Z,74.80
2023-02-03T23:30:17.599Z,75.10
2023-02-03T23:32:44.416Z,75.90
2023-02-03T23:35:29.895Z,76.40
2023-02-03T23:37:56.602Z,77.20
2023-02-03T23:40:23.321Z,77.90
2023-02-03T23:42:50.093Z,78.10
2023-02-03T23:45:17.172Z,78.50
2023-02-03T23:47:44.978Z,79.70
2023-02-03T23:50:15.155Z,80.40
2023-02-03T23:52:42.170Z,81.00
2023-02-03T23:55:12.607Z,80.50
2023-02-03T23:57:42.392Z,81.40
